sensor_id;sensor_type;location;lat;lon;timestamp;P1;durP1;ratioP1;P2;durP2;ratioP2
12699;SDS011;6414;49.570;6.060;2023-04-28T00:02:31;0.87;;;0.57;;
12699;SDS011;6414;49.570;6.060;2023-04-28T00:05:17;1.10;;;0.83;;
12699;SDS011;6414;49.570;6.060;2023-04-28T00:08:03;1.63;;;0.93;;
12699;SDS011;6414;49.570;6.060;2023-04-28T00:10:50;1.07;;;1.07;;
12699;SDS011;6414;49.570;6.060;2023-04-28T00:13:37;0.47;;;0.47;;
12699;SDS011;6414;49.570;6.060;2023-04-28T00:16:22;0.97;;;0.53;;
12699;SDS011;6414;49.570;6.060;2023-04-28T00:19:08;2.60;;;1.65;;
12699;SDS011;6414;49.570;6.060;2023-04-28T00:21:55;1.37;;;1.23;;
12699;SDS011;6414;49.570;6.060;2023-04-28T00:24:41;1.53;;;0.87;;
12699;SDS011;6414;49.570;6.060;2023-04-28T00:27:27;3.45;;;1.87;;
12699;SDS011;6414;49.570;6.060;2023-04-28T00:30:14;1.10;;;0.77;;
12699;SDS011;6414;49.570;6.060;2023-04-28T00:33:00;2.33;;;1.07;;
12699;SDS011;6414;49.570;6.060;2023-04-28T00:35:46;3.42;;;1.85;;
12699;SDS011;6414;49.570;6.060;2023-04-28T00:38:32;2.37;;;1.10;;
12699;SDS011;6414;49.570;6.060;2023-04-28T00:41:18;1.30;;;0.70;;
12699;SDS011;6414;49.570;6.060;2023-04-28T00:44:04;1.63;;;1.03;;
12699;SDS011;6414;49.570;6.060;2023-04-28T00:46:50;1.13;;;0.70;;
12699;SDS011;6414;49.570;6.060;2023-04-28T00:49:36;1.30;;;1.10;;
12699;SDS011;6414;49.570;6.060;2023-04-28T00:52:22;1.90;;;0.80;;
12699;SDS011;6414;49.570;6.060;2023-04-28T00:55:08;0.87;;;0.57;;
12699;SDS011;6414;49.570;6.060;2023-04-28T00:57:54;0.93;;;0.70;;
12699;SDS011;6414;49.570;6.060;2023-04-28T01:00:40;0.60;;;0.60;;
12699;SDS011;6414;49.570;6.060;2023-04-28T01:03:27;1.90;;;1.10;;
12699;SDS011;6414;49.570;6.060;2023-04-28T01:06:13;1.77;;;1.33;;
12699;SDS011;6414;49.570;6.060;2023-04-28T01:08:59;2.13;;;0.87;;
12699;SDS011;6414;49.570;6.060;2023-04-28T01:11:45;0.70;;;0.50;;
12699;SDS011;6414;49.570;6.060;2023-04-28T01:14:31;7.80;;;1.93;;
12699;SDS011;6414;49.570;6.060;2023-04-28T01:17:17;5.37;;;1.27;;
12699;SDS011;6414;49.570;6.060;2023-04-28T01:20:03;2.97;;;1.23;;
12699;SDS011;6414;49.570;6.060;2023-04-28T01:22:50;2.57;;;1.27;;
12699;SDS011;6414;49.570;6.060;2023-04-28T01:25:37;1.10;;;0.90;;
12699;SDS011;6414;49.570;6.060;2023-04-28T01:28:23;2.73;;;1.80;;
12699;SDS011;6414;49.570;6.060;2023-04-28T01:31:09;3.40;;;2.03;;
12699;SDS011;6414;49.570;6.060;2023-04-28T01:33:56;2.13;;;1.57;;
12699;SDS011;6414;49.570;6.060;2023-04-28T01:36:42;1.23;;;1.07;;
12699;SDS011;6414;49.570;6.060;2023-04-28T01:39:29;3.20;;;1.77;;
12699;SDS011;6414;49.570;6.060;2023-04-28T01:42:16;2.63;;;1.63;;
12699;SDS011;6414;49.570;6.060;2023-04-28T01:45:02;1.20;;;0.87;;
12699;SDS011;6414;49.570;6.060;2023-04-28T01:47:49;1.70;;;1.43;;
12699;SDS011;6414;49.570;6.060;2023-04-28T01:50:35;0.70;;;0.70;;
12699;SDS011;6414;49.570;6.060;2023-04-28T01:53:21;2.23;;;1.77;;
12699;SDS011;6414;49.570;6.060;2023-04-28T01:56:08;0.90;;;0.87;;
12699;SDS011;6414;49.570;6.060;2023-04-28T01:58:54;1.93;;;0.97;;
12699;SDS011;6414;49.570;6.060;2023-04-28T02:01:40;4.77;;;1.03;;
12699;SDS011;6414;49.570;6.060;2023-04-28T02:04:26;5.50;;;1.67;;
12699;SDS011;6414;49.570;6.060;2023-04-28T02:07:13;1.43;;;1.33;;
12699;SDS011;6414;49.570;6.060;2023-04-28T02:09:59;2.50;;;2.13;;
12699;SDS011;6414;49.570;6.060;2023-04-28T02:12:45;3.80;;;1.97;;
12699;SDS011;6414;49.570;6.060;2023-04-28T02:15:31;1.53;;;0.90;;
12699;SDS011;6414;49.570;6.060;2023-04-28T02:18:17;4.33;;;1.23;;
12699;SDS011;6414;49.570;6.060;2023-04-28T02:21:12;2.63;;;1.27;;
12699;SDS011;6414;49.570;6.060;2023-04-28T02:23:59;2.60;;;1.30;;
12699;SDS011;6414;49.570;6.060;2023-04-28T02:26:46;3.37;;;1.60;;
12699;SDS011;6414;49.570;6.060;2023-04-28T02:29:32;2.93;;;1.30;;
12699;SDS011;6414;49.570;6.060;2023-04-28T02:32:18;1.97;;;1.63;;
12699;SDS011;6414;49.570;6.060;2023-04-28T02:35:04;2.40;;;0.90;;
12699;SDS011;6414;49.570;6.060;2023-04-28T02:37:50;1.20;;;0.97;;
12699;SDS011;6414;49.570;6.060;2023-04-28T02:40:36;3.67;;;1.60;;
12699;SDS011;6414;49.570;6.060;2023-04-28T02:43:23;2.63;;;1.23;;
12699;SDS011;6414;49.570;6.060;2023-04-28T02:46:09;1.67;;;1.50;;
12699;SDS011;6414;49.570;6.060;2023-04-28T02:48:55;1.93;;;1.70;;
12699;SDS011;6414;49.570;6.060;2023-04-28T02:51:41;2.07;;;1.40;;
12699;SDS011;6414;49.570;6.060;2023-04-28T02:54:27;2.17;;;1.33;;
12699;SDS011;6414;49.570;6.060;2023-04-28T02:57:13;6.37;;;2.30;;
12699;SDS011;6414;49.570;6.060;2023-04-28T02:59:59;2.87;;;1.37;;
12699;SDS011;6414;49.570;6.060;2023-04-28T03:02:46;3.63;;;2.20;;
12699;SDS011;6414;49.570;6.060;2023-04-28T03:05:32;1.10;;;0.77;;
12699;SDS011;6414;49.570;6.060;2023-04-28T03:08:19;1.73;;;1.63;;
12699;SDS011;6414;49.570;6.060;2023-04-28T03:11:05;0.83;;;0.83;;
12699;SDS011;6414;49.570;6.060;2023-04-28T03:13:51;1.23;;;1.20;;
12699;SDS011;6414;49.570;6.060;2023-04-28T03:16:37;0.90;;;0.90;;
12699;SDS011;6414;49.570;6.060;2023-04-28T03:19:24;1.50;;;0.93;;
12699;SDS011;6414;49.570;6.060;2023-04-28T03:22:10;0.80;;;0.53;;
12699;SDS011;6414;49.570;6.060;2023-04-28T03:24:56;1.60;;;1.03;;
12699;SDS011;6414;49.570;6.060;2023-04-28T03:27:42;3.20;;;2.03;;
12699;SDS011;6414;49.570;6.060;2023-04-28T03:30:29;2.10;;;1.30;;
12699;SDS011;6414;49.570;6.060;2023-04-28T03:33:16;1.13;;;1.03;;
12699;SDS011;6414;49.570;6.060;2023-04-28T03:36:02;2.93;;;0.97;;
12699;SDS011;6414;49.570;6.060;2023-04-28T03:38:48;1.60;;;1.23;;
12699;SDS011;6414;49.570;6.060;2023-04-28T03:41:34;1.37;;;1.27;;
12699;SDS011;6414;49.570;6.060;2023-04-28T03:44:20;0.77;;;0.70;;
12699;SDS011;6414;49.570;6.060;2023-04-28T03:47:08;1.93;;;1.50;;
12699;SDS011;6414;49.570;6.060;2023-04-28T03:49:54;1.23;;;0.93;;
12699;SDS011;6414;49.570;6.060;2023-04-28T03:52:40;1.23;;;1.10;;
12699;SDS011;6414;49.570;6.060;2023-04-28T03:55:27;2.17;;;1.20;;
12699;SDS011;6414;49.570;6.060;2023-04-28T03:58:13;2.13;;;1.23;;
12699;SDS011;6414;49.570;6.060;2023-04-28T04:00:59;1.23;;;1.03;;
12699;SDS011;6414;49.570;6.060;2023-04-28T04:03:46;1.55;;;0.90;;
12699;SDS011;6414;49.570;6.060;2023-04-28T04:06:32;0.90;;;0.70;;
12699;SDS011;6414;49.570;6.060;2023-04-28T04:09:18;2.60;;;1.10;;
12699;SDS011;6414;49.570;6.060;2023-04-28T04:12:04;0.87;;;0.70;;
12699;SDS011;6414;49.570;6.060;2023-04-28T04:14:51;1.15;;;0.98;;
12699;SDS011;6414;49.570;6.060;2023-04-28T04:17:36;1.40;;;1.00;;
12699;SDS011;6414;49.570;6.060;2023-04-28T04:20:23;0.93;;;0.83;;
12699;SDS011;6414;49.570;6.060;2023-04-28T04:23:09;0.50;;;0.50;;
12699;SDS011;6414;49.570;6.060;2023-04-28T04:25:55;0.53;;;0.43;;
12699;SDS011;6414;49.570;6.060;2023-04-28T04:28:42;0.70;;;0.57;;
12699;SDS011;6414;49.570;6.060;2023-04-28T04:31:28;2.60;;;0.93;;
12699;SDS011;6414;49.570;6.060;2023-04-28T04:34:14;0.30;;;0.30;;
12699;SDS011;6414;49.570;6.060;2023-04-28T04:37:00;0.30;;;0.30;;
12699;SDS011;6414;49.570;6.060;2023-04-28T04:39:47;1.20;;;0.80;;
12699;SDS011;6414;49.570;6.060;2023-04-28T04:42:33;0.33;;;0.33;;
12699;SDS011;6414;49.570;6.060;2023-04-28T04:45:19;0.60;;;0.50;;
12699;SDS011;6414;49.570;6.060;2023-04-28T04:48:05;0.40;;;0.37;;
12699;SDS011;6414;49.570;6.060;2023-04-28T04:50:51;0.27;;;0.27;;
12699;SDS011;6414;49.570;6.060;2023-04-28T04:53:37;0.30;;;0.30;;
12699;SDS011;6414;49.570;6.060;2023-04-28T04:56:24;0.40;;;0.40;;
12699;SDS011;6414;49.570;6.060;2023-04-28T04:59:10;1.90;;;0.73;;
12699;SDS011;6414;49.570;6.060;2023-04-28T05:01:57;2.75;;;0.95;;
12699;SDS011;6414;49.570;6.060;2023-04-28T05:04:43;0.57;;;0.57;;
12699;SDS011;6414;49.570;6.060;2023-04-28T05:07:29;0.70;;;0.63;;
12699;SDS011;6414;49.570;6.060;2023-04-28T05:10:16;0.20;;;0.20;;
12699;SDS011;6414;49.570;6.060;2023-04-28T05:13:03;1.13;;;0.47;;
12699;SDS011;6414;49.570;6.060;2023-04-28T05:15:50;0.20;;;0.17;;
12699;SDS011;6414;49.570;6.060;2023-04-28T05:18:36;0.90;;;0.27;;
12699;SDS011;6414;49.570;6.060;2023-04-28T05:21:22;0.10;;;0.10;;
12699;SDS011;6414;49.570;6.060;2023-04-28T05:24:09;0.40;;;0.40;;
12699;SDS011;6414;49.570;6.060;2023-04-28T05:26:56;0.40;;;0.40;;
12699;SDS011;6414;49.570;6.060;2023-04-28T05:29:40;0.10;;;0.10;;
12699;SDS011;6414;49.570;6.060;2023-04-28T05:32:27;3.70;;;0.20;;
12699;SDS011;6414;49.570;6.060;2023-04-28T05:35:13;0.37;;;0.37;;
12699;SDS011;6414;49.570;6.060;2023-04-28T05:38:00;0.50;;;0.50;;
12699;SDS011;6414;49.570;6.060;2023-04-28T05:40:46;0.10;;;0.10;;
12699;SDS011;6414;49.570;6.060;2023-04-28T05:43:32;0.63;;;0.30;;
12699;SDS011;6414;49.570;6.060;2023-04-28T05:46:19;0.20;;;0.20;;
12699;SDS011;6414;49.570;6.060;2023-04-28T05:49:05;0.10;;;0.10;;
12699;SDS011;6414;49.570;6.060;2023-04-28T05:51:51;0.40;;;0.30;;
12699;SDS011;6414;49.570;6.060;2023-04-28T05:54:37;0.20;;;0.20;;
12699;SDS011;6414;49.570;6.060;2023-04-28T05:57:25;0.27;;;0.27;;
12699;SDS011;6414;49.570;6.060;2023-04-28T06:00:11;0.47;;;0.20;;
12699;SDS011;6414;49.570;6.060;2023-04-28T06:02:57;0.77;;;0.40;;
12699;SDS011;6414;49.570;6.060;2023-04-28T06:05:43;0.17;;;0.17;;
12699;SDS011;6414;49.570;6.060;2023-04-28T06:08:29;0.10;;;0.10;;
12699;SDS011;6414;49.570;6.060;2023-04-28T06:11:15;0.27;;;0.27;;
12699;SDS011;6414;49.570;6.060;2023-04-28T06:14:02;0.27;;;0.27;;
12699;SDS011;6414;49.570;6.060;2023-04-28T06:16:49;0.00;;;0.00;;
12699;SDS011;6414;49.570;6.060;2023-04-28T06:19:35;0.00;;;0.00;;
12699;SDS011;6414;49.570;6.060;2023-04-28T06:22:21;0.30;;;0.13;;
12699;SDS011;6414;49.570;6.060;2023-04-28T06:25:07;0.07;;;0.07;;
12699;SDS011;6414;49.570;6.060;2023-04-28T06:27:53;0.00;;;0.00;;
12699;SDS011;6414;49.570;6.060;2023-04-28T06:30:40;0.00;;;0.00;;
12699;SDS011;6414;49.570;6.060;2023-04-28T06:33:27;0.10;;;0.10;;
12699;SDS011;6414;49.570;6.060;2023-04-28T06:36:14;0.10;;;0.10;;
12699;SDS011;6414;49.570;6.060;2023-04-28T06:39:00;0.53;;;0.20;;
12699;SDS011;6414;49.570;6.060;2023-04-28T06:41:46;3.67;;;0.37;;
12699;SDS011;6414;49.570;6.060;2023-04-28T06:44:32;0.70;;;0.17;;
12699;SDS011;6414;49.570;6.060;2023-04-28T06:47:19;0.40;;;0.40;;
12699;SDS011;6414;49.570;6.060;2023-04-28T06:50:05;0.10;;;0.10;;
12699;SDS011;6414;49.570;6.060;2023-04-28T06:52:51;0.30;;;0.27;;
12699;SDS011;6414;49.570;6.060;2023-04-28T06:57:58;1.00;;;0.30;;
12699;SDS011;6414;49.570;6.060;2023-04-28T07:00:44;0.10;;;0.10;;
12699;SDS011;6414;49.570;6.060;2023-04-28T07:03:30;0.57;;;0.40;;
12699;SDS011;6414;49.570;6.060;2023-04-28T07:06:16;0.00;;;0.00;;
12699;SDS011;6414;49.570;6.060;2023-04-28T07:09:02;0.10;;;0.10;;
12699;SDS011;6414;49.570;6.060;2023-04-28T07:11:49;0.30;;;0.20;;
12699;SDS011;6414;49.570;6.060;2023-04-28T07:14:36;0.20;;;0.20;;
12699;SDS011;6414;49.570;6.060;2023-04-28T07:17:22;0.10;;;0.10;;
12699;SDS011;6414;49.570;6.060;2023-04-28T07:20:08;0.10;;;0.10;;
12699;SDS011;6414;49.570;6.060;2023-04-28T07:22:54;0.10;;;0.10;;
12699;SDS011;6414;49.570;6.060;2023-04-28T07:25:40;0.10;;;0.10;;
12699;SDS011;6414;49.570;6.060;2023-04-28T07:28:27;0.40;;;0.30;;
12699;SDS011;6414;49.570;6.060;2023-04-28T07:31:13;0.30;;;0.30;;
12699;SDS011;6414;49.570;6.060;2023-04-28T07:34:00;0.00;;;0.00;;
12699;SDS011;6414;49.570;6.060;2023-04-28T07:36:46;2.07;;;0.50;;
12699;SDS011;6414;49.570;6.060;2023-04-28T07:39:33;0.20;;;0.10;;
12699;SDS011;6414;49.570;6.060;2023-04-28T07:42:19;0.20;;;0.20;;
12699;SDS011;6414;49.570;6.060;2023-04-28T07:45:05;0.10;;;0.10;;
12699;SDS011;6414;49.570;6.060;2023-04-28T07:47:52;0.00;;;0.00;;
12699;SDS011;6414;49.570;6.060;2023-04-28T07:50:39;0.10;;;0.10;;
12699;SDS011;6414;49.570;6.060;2023-04-28T07:53:25;0.20;;;0.20;;
12699;SDS011;6414;49.570;6.060;2023-04-28T07:56:12;0.10;;;0.10;;
12699;SDS011;6414;49.570;6.060;2023-04-28T07:58:59;0.07;;;0.07;;
12699;SDS011;6414;49.570;6.060;2023-04-28T08:01:45;0.00;;;0.00;;
12699;SDS011;6414;49.570;6.060;2023-04-28T08:04:31;0.10;;;0.10;;
12699;SDS011;6414;49.570;6.060;2023-04-28T08:07:17;0.03;;;0.03;;
12699;SDS011;6414;49.570;6.060;2023-04-28T08:10:03;0.30;;;0.30;;
12699;SDS011;6414;49.570;6.060;2023-04-28T08:12:49;0.00;;;0.00;;
12699;SDS011;6414;49.570;6.060;2023-04-28T08:15:35;0.27;;;0.07;;
12699;SDS011;6414;49.570;6.060;2023-04-28T08:18:22;0.07;;;0.07;;
12699;SDS011;6414;49.570;6.060;2023-04-28T08:21:08;0.00;;;0.00;;
12699;SDS011;6414;49.570;6.060;2023-04-28T08:23:54;0.00;;;0.00;;
12699;SDS011;6414;49.570;6.060;2023-04-28T08:26:40;0.00;;;0.00;;
12699;SDS011;6414;49.570;6.060;2023-04-28T08:29:26;0.00;;;0.00;;
12699;SDS011;6414;49.570;6.060;2023-04-28T08:32:12;0.00;;;0.00;;
12699;SDS011;6414;49.570;6.060;2023-04-28T08:34:59;0.00;;;0.00;;
12699;SDS011;6414;49.570;6.060;2023-04-28T08:37:46;0.20;;;0.10;;
12699;SDS011;6414;49.570;6.060;2023-04-28T08:40:33;0.13;;;0.10;;
12699;SDS011;6414;49.570;6.060;2023-04-28T08:43:19;0.50;;;0.30;;
12699;SDS011;6414;49.570;6.060;2023-04-28T08:46:06;0.20;;;0.20;;
12699;SDS011;6414;49.570;6.060;2023-04-28T08:48:52;0.60;;;0.30;;
12699;SDS011;6414;49.570;6.060;2023-04-28T08:51:42;0.40;;;0.37;;
12699;SDS011;6414;49.570;6.060;2023-04-28T08:54:32;0.30;;;0.20;;
12699;SDS011;6414;49.570;6.060;2023-04-28T08:57:17;1.33;;;0.57;;
12699;SDS011;6414;49.570;6.060;2023-04-28T09:00:04;0.30;;;0.17;;
12699;SDS011;6414;49.570;6.060;2023-04-28T09:02:49;0.20;;;0.20;;
12699;SDS011;6414;49.570;6.060;2023-04-28T09:05:36;0.37;;;0.30;;
12699;SDS011;6414;49.570;6.060;2023-04-28T09:08:22;2.10;;;0.50;;
12699;SDS011;6414;49.570;6.060;2023-04-28T09:11:09;0.20;;;0.10;;
12699;SDS011;6414;49.570;6.060;2023-04-28T09:13:59;0.33;;;0.23;;
12699;SDS011;6414;49.570;6.060;2023-04-28T09:16:40;0.30;;;0.30;;
12699;SDS011;6414;49.570;6.060;2023-04-28T09:19:33;0.17;;;0.17;;
12699;SDS011;6414;49.570;6.060;2023-04-28T09:22:18;0.10;;;0.10;;
12699;SDS011;6414;49.570;6.060;2023-04-28T09:25:11;0.10;;;0.07;;
12699;SDS011;6414;49.570;6.060;2023-04-28T09:27:57;0.13;;;0.13;;
12699;SDS011;6414;49.570;6.060;2023-04-28T09:30:44;0.20;;;0.20;;
12699;SDS011;6414;49.570;6.060;2023-04-28T09:33:30;0.40;;;0.37;;
12699;SDS011;6414;49.570;6.060;2023-04-28T09:36:25;0.33;;;0.33;;
12699;SDS011;6414;49.570;6.060;2023-04-28T09:39:03;2.50;;;0.37;;
12699;SDS011;6414;49.570;6.060;2023-04-28T09:41:49;0.63;;;0.20;;
12699;SDS011;6414;49.570;6.060;2023-04-28T09:44:36;0.30;;;0.30;;
12699;SDS011;6414;49.570;6.060;2023-04-28T09:47:22;0.10;;;0.10;;
12699;SDS011;6414;49.570;6.060;2023-04-28T09:50:09;0.00;;;0.00;;
12699;SDS011;6414;49.570;6.060;2023-04-28T09:52:55;0.17;;;0.10;;
12699;SDS011;6414;49.570;6.060;2023-04-28T09:55:42;0.20;;;0.20;;
12699;SDS011;6414;49.570;6.060;2023-04-28T09:58:28;0.10;;;0.10;;
12699;SDS011;6414;49.570;6.060;2023-04-28T10:01:14;0.40;;;0.10;;
12699;SDS011;6414;49.570;6.060;2023-04-28T10:04:01;0.10;;;0.10;;
12699;SDS011;6414;49.570;6.060;2023-04-28T10:06:47;0.47;;;0.20;;
12699;SDS011;6414;49.570;6.060;2023-04-28T10:09:33;0.20;;;0.20;;
12699;SDS011;6414;49.570;6.060;2023-04-28T10:12:19;0.70;;;0.30;;
12699;SDS011;6414;49.570;6.060;2023-04-28T10:15:06;0.00;;;0.00;;
12699;SDS011;6414;49.570;6.060;2023-04-28T10:17:54;0.20;;;0.13;;
12699;SDS011;6414;49.570;6.060;2023-04-28T10:20:41;0.10;;;0.10;;
12699;SDS011;6414;49.570;6.060;2023-04-28T10:29:43;0.20;;;0.20;;
12699;SDS011;6414;49.570;6.060;2023-04-28T10:32:29;0.20;;;0.20;;
12699;SDS011;6414;49.570;6.060;2023-04-28T10:38:18;0.10;;;0.10;;
12699;SDS011;6414;49.570;6.060;2023-04-28T10:41:04;0.43;;;0.20;;
12699;SDS011;6414;49.570;6.060;2023-04-28T10:43:50;0.20;;;0.20;;
12699;SDS011;6414;49.570;6.060;2023-04-28T10:47:20;0.10;;;0.10;;
12699;SDS011;6414;49.570;6.060;2023-04-28T10:55:32;0.40;;;0.40;;
12699;SDS011;6414;49.570;6.060;2023-04-28T11:01:26;0.10;;;0.10;;
12699;SDS011;6414;49.570;6.060;2023-04-28T11:04:12;0.10;;;0.10;;
12699;SDS011;6414;49.570;6.060;2023-04-28T11:07:08;0.30;;;0.17;;
12699;SDS011;6414;49.570;6.060;2023-04-28T11:09:53;0.13;;;0.13;;
12699;SDS011;6414;49.570;6.060;2023-04-28T11:16:05;0.43;;;0.43;;
12699;SDS011;6414;49.570;6.060;2023-04-28T11:18:52;0.30;;;0.30;;
12699;SDS011;6414;49.570;6.060;2023-04-28T11:21:40;0.20;;;0.20;;
12699;SDS011;6414;49.570;6.060;2023-04-28T11:24:27;0.20;;;0.20;;
12699;SDS011;6414;49.570;6.060;2023-04-28T11:27:22;0.30;;;0.30;;
12699;SDS011;6414;49.570;6.060;2023-04-28T11:30:02;0.30;;;0.30;;
12699;SDS011;6414;49.570;6.060;2023-04-28T11:32:49;0.20;;;0.20;;
12699;SDS011;6414;49.570;6.060;2023-04-28T11:35:42;0.00;;;0.00;;
12699;SDS011;6414;49.570;6.060;2023-04-28T11:38:28;0.00;;;0.00;;
12699;SDS011;6414;49.570;6.060;2023-04-28T11:41:14;0.23;;;0.20;;
12699;SDS011;6414;49.570;6.060;2023-04-28T11:44:00;0.30;;;0.30;;
12699;SDS011;6414;49.570;6.060;2023-04-28T11:46:47;0.30;;;0.30;;
12699;SDS011;6414;49.570;6.060;2023-04-28T11:49:45;0.07;;;0.07;;
12699;SDS011;6414;49.570;6.060;2023-04-28T11:52:31;0.13;;;0.13;;
12699;SDS011;6414;49.570;6.060;2023-04-28T11:58:29;0.85;;;0.32;;
12699;SDS011;6414;49.570;6.060;2023-04-28T12:01:11;0.20;;;0.20;;
12699;SDS011;6414;49.570;6.060;2023-04-28T12:03:57;0.27;;;0.27;;
12699;SDS011;6414;49.570;6.060;2023-04-28T12:06:44;0.40;;;0.30;;
12699;SDS011;6414;49.570;6.060;2023-04-28T12:09:30;0.50;;;0.40;;
12699;SDS011;6414;49.570;6.060;2023-04-28T12:12:29;0.17;;;0.17;;
12699;SDS011;6414;49.570;6.060;2023-04-28T12:15:15;0.23;;;0.20;;
12699;SDS011;6414;49.570;6.060;2023-04-28T12:18:08;0.30;;;0.30;;
12699;SDS011;6414;49.570;6.060;2023-04-28T12:20:47;0.20;;;0.10;;
12699;SDS011;6414;49.570;6.060;2023-04-28T12:23:34;0.23;;;0.23;;
12699;SDS011;6414;49.570;6.060;2023-04-28T12:26:25;0.30;;;0.30;;
12699;SDS011;6414;49.570;6.060;2023-04-28T12:32:19;0.10;;;0.10;;
12699;SDS011;6414;49.570;6.060;2023-04-28T12:35:05;0.33;;;0.30;;
12699;SDS011;6414;49.570;6.060;2023-04-28T12:37:51;0.17;;;0.17;;
12699;SDS011;6414;49.570;6.060;2023-04-28T12:40:37;0.83;;;0.40;;
12699;SDS011;6414;49.570;6.060;2023-04-28T12:43:23;0.37;;;0.33;;
12699;SDS011;6414;49.570;6.060;2023-04-28T12:46:10;0.10;;;0.10;;
12699;SDS011;6414;49.570;6.060;2023-04-28T12:48:56;0.20;;;0.20;;
12699;SDS011;6414;49.570;6.060;2023-04-28T12:51:42;0.20;;;0.20;;
12699;SDS011;6414;49.570;6.060;2023-04-28T12:54:32;0.10;;;0.10;;
12699;SDS011;6414;49.570;6.060;2023-04-28T12:57:15;0.17;;;0.17;;
12699;SDS011;6414;49.570;6.060;2023-04-28T13:00:04;0.10;;;0.07;;
12699;SDS011;6414;49.570;6.060;2023-04-28T13:02:50;0.20;;;0.20;;
12699;SDS011;6414;49.570;6.060;2023-04-28T13:05:35;0.13;;;0.13;;
12699;SDS011;6414;49.570;6.060;2023-04-28T13:08:22;0.10;;;0.10;;
12699;SDS011;6414;49.570;6.060;2023-04-28T13:11:08;1.17;;;0.20;;
12699;SDS011;6414;49.570;6.060;2023-04-28T13:13:55;0.13;;;0.13;;
12699;SDS011;6414;49.570;6.060;2023-04-28T13:16:41;0.30;;;0.30;;
12699;SDS011;6414;49.570;6.060;2023-04-28T13:19:28;0.13;;;0.13;;
12699;SDS011;6414;49.570;6.060;2023-04-28T13:22:15;0.00;;;0.00;;
12699;SDS011;6414;49.570;6.060;2023-04-28T13:25:01;0.93;;;0.30;;
12699;SDS011;6414;49.570;6.060;2023-04-28T13:27:47;0.35;;;0.32;;
12699;SDS011;6414;49.570;6.060;2023-04-28T13:30:33;0.30;;;0.30;;
12699;SDS011;6414;49.570;6.060;2023-04-28T13:33:20;0.10;;;0.10;;
12699;SDS011;6414;49.570;6.060;2023-04-28T13:36:06;0.10;;;0.10;;
12699;SDS011;6414;49.570;6.060;2023-04-28T13:38:53;0.23;;;0.23;;
12699;SDS011;6414;49.570;6.060;2023-04-28T13:41:39;0.10;;;0.10;;
12699;SDS011;6414;49.570;6.060;2023-04-28T13:44:26;0.73;;;0.63;;
12699;SDS011;6414;49.570;6.060;2023-04-28T13:47:12;0.27;;;0.27;;
12699;SDS011;6414;49.570;6.060;2023-04-28T13:50:01;0.40;;;0.40;;
12699;SDS011;6414;49.570;6.060;2023-04-28T13:52:47;0.20;;;0.20;;
12699;SDS011;6414;49.570;6.060;2023-04-28T13:55:33;0.43;;;0.13;;
12699;SDS011;6414;49.570;6.060;2023-04-28T13:58:18;0.10;;;0.10;;
12699;SDS011;6414;49.570;6.060;2023-04-28T14:01:05;0.10;;;0.10;;
12699;SDS011;6414;49.570;6.060;2023-04-28T14:03:51;1.13;;;0.30;;
12699;SDS011;6414;49.570;6.060;2023-04-28T14:06:37;0.40;;;0.40;;
12699;SDS011;6414;49.570;6.060;2023-04-28T14:09:23;0.53;;;0.40;;
12699;SDS011;6414;49.570;6.060;2023-04-28T14:12:09;0.40;;;0.30;;
12699;SDS011;6414;49.570;6.060;2023-04-28T14:14:56;0.47;;;0.40;;
12699;SDS011;6414;49.570;6.060;2023-04-28T14:17:42;0.20;;;0.20;;
12699;SDS011;6414;49.570;6.060;2023-04-28T14:20:28;0.67;;;0.63;;
12699;SDS011;6414;49.570;6.060;2023-04-28T14:23:14;0.10;;;0.10;;
12699;SDS011;6414;49.570;6.060;2023-04-28T14:26:00;1.30;;;0.40;;
12699;SDS011;6414;49.570;6.060;2023-04-28T14:28:46;0.50;;;0.40;;
12699;SDS011;6414;49.570;6.060;2023-04-28T14:31:32;0.40;;;0.30;;
12699;SDS011;6414;49.570;6.060;2023-04-28T14:34:18;0.40;;;0.40;;
12699;SDS011;6414;49.570;6.060;2023-04-28T14:37:04;0.10;;;0.10;;
12699;SDS011;6414;49.570;6.060;2023-04-28T14:39:51;0.30;;;0.30;;
12699;SDS011;6414;49.570;6.060;2023-04-28T14:42:36;0.40;;;0.40;;
12699;SDS011;6414;49.570;6.060;2023-04-28T14:45:22;0.47;;;0.30;;
12699;SDS011;6414;49.570;6.060;2023-04-28T14:48:09;0.30;;;0.20;;
12699;SDS011;6414;49.570;6.060;2023-04-28T14:50:56;0.33;;;0.33;;
12699;SDS011;6414;49.570;6.060;2023-04-28T14:53:42;0.23;;;0.20;;
12699;SDS011;6414;49.570;6.060;2023-04-28T14:56:28;1.10;;;0.50;;
12699;SDS011;6414;49.570;6.060;2023-04-28T14:59:14;0.40;;;0.10;;
12699;SDS011;6414;49.570;6.060;2023-04-28T15:02:01;0.43;;;0.40;;
12699;SDS011;6414;49.570;6.060;2023-04-28T15:04:48;0.33;;;0.30;;
12699;SDS011;6414;49.570;6.060;2023-04-28T15:07:35;0.10;;;0.10;;
12699;SDS011;6414;49.570;6.060;2023-04-28T15:10:20;0.20;;;0.20;;
12699;SDS011;6414;49.570;6.060;2023-04-28T15:13:07;0.30;;;0.30;;
12699;SDS011;6414;49.570;6.060;2023-04-28T15:15:52;0.37;;;0.37;;
12699;SDS011;6414;49.570;6.060;2023-04-28T15:18:39;0.40;;;0.30;;
12699;SDS011;6414;49.570;6.060;2023-04-28T15:21:25;0.20;;;0.20;;
12699;SDS011;6414;49.570;6.060;2023-04-28T15:24:11;0.23;;;0.13;;
12699;SDS011;6414;49.570;6.060;2023-04-28T15:26:57;2.62;;;0.60;;
12699;SDS011;6414;49.570;6.060;2023-04-28T15:29:44;0.80;;;0.20;;
12699;SDS011;6414;49.570;6.060;2023-04-28T15:32:30;0.10;;;0.10;;
12699;SDS011;6414;49.570;6.060;2023-04-28T15:35:16;0.50;;;0.30;;
12699;SDS011;6414;49.570;6.060;2023-04-28T15:38:02;0.73;;;0.40;;
12699;SDS011;6414;49.570;6.060;2023-04-28T15:40:48;0.32;;;0.30;;
12699;SDS011;6414;49.570;6.060;2023-04-28T15:43:34;0.40;;;0.40;;
12699;SDS011;6414;49.570;6.060;2023-04-28T15:46:21;0.30;;;0.30;;
12699;SDS011;6414;49.570;6.060;2023-04-28T15:49:07;0.20;;;0.10;;
12699;SDS011;6414;49.570;6.060;2023-04-28T15:51:53;1.60;;;0.40;;
12699;SDS011;6414;49.570;6.060;2023-04-28T15:54:39;0.27;;;0.27;;
12699;SDS011;6414;49.570;6.060;2023-04-28T15:57:26;0.97;;;0.33;;
12699;SDS011;6414;49.570;6.060;2023-04-28T16:00:13;2.73;;;0.30;;
12699;SDS011;6414;49.570;6.060;2023-04-28T16:02:59;0.33;;;0.30;;
12699;SDS011;6414;49.570;6.060;2023-04-28T16:05:45;0.20;;;0.20;;
12699;SDS011;6414;49.570;6.060;2023-04-28T16:08:32;0.40;;;0.33;;
12699;SDS011;6414;49.570;6.060;2023-04-28T16:11:19;0.20;;;0.20;;
12699;SDS011;6414;49.570;6.060;2023-04-28T16:14:05;0.30;;;0.30;;
12699;SDS011;6414;49.570;6.060;2023-04-28T16:16:51;0.60;;;0.20;;
12699;SDS011;6414;49.570;6.060;2023-04-28T16:19:38;0.20;;;0.20;;
12699;SDS011;6414;49.570;6.060;2023-04-28T16:22:24;0.30;;;0.27;;
12699;SDS011;6414;49.570;6.060;2023-04-28T16:25:11;1.70;;;0.57;;
12699;SDS011;6414;49.570;6.060;2023-04-28T16:27:57;0.30;;;0.20;;
12699;SDS011;6414;49.570;6.060;2023-04-28T16:30:43;0.50;;;0.50;;
12699;SDS011;6414;49.570;6.060;2023-04-28T16:33:29;0.40;;;0.30;;
12699;SDS011;6414;49.570;6.060;2023-04-28T16:36:15;0.30;;;0.30;;
12699;SDS011;6414;49.570;6.060;2023-04-28T16:39:02;0.17;;;0.17;;
12699;SDS011;6414;49.570;6.060;2023-04-28T16:41:48;0.30;;;0.23;;
12699;SDS011;6414;49.570;6.060;2023-04-28T16:44:34;0.30;;;0.30;;
12699;SDS011;6414;49.570;6.060;2023-04-28T16:47:21;0.40;;;0.40;;
12699;SDS011;6414;49.570;6.060;2023-04-28T16:50:08;0.20;;;0.20;;
12699;SDS011;6414;49.570;6.060;2023-04-28T16:52:54;0.50;;;0.40;;
12699;SDS011;6414;49.570;6.060;2023-04-28T16:55:40;0.63;;;0.63;;
12699;SDS011;6414;49.570;6.060;2023-04-28T16:58:27;0.57;;;0.20;;
12699;SDS011;6414;49.570;6.060;2023-04-28T17:01:14;0.63;;;0.27;;
12699;SDS011;6414;49.570;6.060;2023-04-28T17:04:00;0.27;;;0.27;;
12699;SDS011;6414;49.570;6.060;2023-04-28T17:06:47;0.30;;;0.30;;
12699;SDS011;6414;49.570;6.060;2023-04-28T17:09:32;0.43;;;0.43;;
12699;SDS011;6414;49.570;6.060;2023-04-28T17:12:19;0.87;;;0.40;;
12699;SDS011;6414;49.570;6.060;2023-04-28T17:15:05;0.30;;;0.30;;
12699;SDS011;6414;49.570;6.060;2023-04-28T17:17:52;2.17;;;0.40;;
12699;SDS011;6414;49.570;6.060;2023-04-28T17:20:38;0.63;;;0.50;;
12699;SDS011;6414;49.570;6.060;2023-04-28T17:23:24;0.27;;;0.27;;
12699;SDS011;6414;49.570;6.060;2023-04-28T17:26:10;0.27;;;0.23;;
12699;SDS011;6414;49.570;6.060;2023-04-28T17:28:56;0.30;;;0.30;;